Time;durP1;ratioP1;P1;durP2;ratioP2;P2;SDS_P1;SDS_P2;PMS_P1;PMS_P2;Temp;Humidity;BMP_temperature;BMP_pressure;BME280_temperature;BME280_humidity;BME280_pressure;Samples;Min_cycle;Max_cycle;Signal;HPM_P1;HPM_P2
2023/03/28 00:00:31;;;;;;;7.37;1.83;;;2.40;88.60;;;;;;4997669;28;20100;-77
2023/03/28 00:02:57;;;;;;;8.27;1.93;;;2.40;88.60;;;;;;5015101;28;20018;-77
2023/03/28 00:05:23;;;;;;;10.30;1.50;;;2.30;88.70;;;;;;4997482;28;20041;-77
2023/03/28 00:07:52;;;;;;;7.63;1.70;;;2.30;88.80;;;;;;4997455;28;20037;-77
2023/03/28 00:10:18;;;;;;;7.47;1.50;;;2.30;89.00;;;;;;4997529;28;20102;-77
2023/03/28 00:12:44;;;;;;;9.67;1.73;;;2.30;89.20;;;;;;4997672;28;20030;-77
2023/03/28 00:15:10;;;;;;;6.83;1.80;;;2.30;90.00;;;;;;5014782;28;20105;-76
2023/03/28 00:17:36;;;;;;;6.67;1.87;;;2.20;89.50;;;;;;4997683;28;20520;-77
2023/03/28 00:20:03;;;;;;;10.60;1.90;;;2.20;89.60;;;;;;4997181;28;20026;-77
2023/03/28 00:22:32;;;;;;;6.73;1.70;;;2.20;90.00;;;;;;4997332;28;20038;-77
2023/03/28 00:24:57;;;;;;;11.10;2.07;;;2.10;90.00;;;;;;5013509;28;20363;-77
2023/03/28 00:27:24;;;;;;;4.63;1.53;;;2.20;90.10;;;;;;4997044;28;20121;-76
2023/03/28 00:29:50;;;;;;;8.60;1.60;;;2.20;90.10;;;;;;5014795;28;20030;-77
2023/03/28 00:32:16;;;;;;;7.00;1.77;;;2.10;90.20;;;;;;4996895;28;20041;-76
2023/03/28 00:34:42;;;;;;;8.73;1.93;;;2.10;90.30;;;;;;5013189;28;20034;-76
2023/03/28 00:37:09;;;;;;;6.07;2.10;;;2.10;90.40;;;;;;5013273;28;20034;-77
2023/03/28 00:39:35;;;;;;;8.80;1.60;;;2.10;90.50;;;;;;4997172;28;20474;-76
2023/03/28 00:42:02;;;;;;;10.77;1.43;;;2.10;90.50;;;;;;4996532;28;20025;-77
2023/03/28 00:44:37;;;;;;;10.57;1.90;;;2.10;90.60;;;;;;5014247;28;20042;-76
2023/03/28 00:47:04;;;;;;;9.40;2.10;;;2.00;90.90;;;;;;5014320;28;20021;-77
2023/03/28 00:49:30;;;;;;;6.33;1.77;;;2.00;90.80;;;;;;4996702;28;20025;-76
2023/03/28 00:51:59;;;;;;;10.00;2.23;;;2.00;90.90;;;;;;5013406;28;20026;-76
2023/03/28 00:54:30;;;;;;;10.10;1.97;;;2.00;91.00;;;;;;5014079;28;20018;-76
2023/03/28 00:57:00;;;;;;;14.40;1.73;;;2.00;91.00;;;;;;4996564;28;20026;-77
2023/03/28 00:59:32;;;;;;;10.10;1.63;;;2.00;91.10;;;;;;5014096;28;20026;-77
2023/03/28 01:01:58;;;;;;;10.20;2.00;;;2.00;91.30;;;;;;4996501;28;20014;-76
2023/03/28 01:04:35;;;;;;;7.10;1.80;;;1.90;91.20;;;;;;4996463;28;20026;-76
2023/03/28 01:07:02;;;;;;;11.20;1.90;;;1.90;91.30;;;;;;4996455;28;20029;-77
2023/03/28 01:09:29;;;;;;;7.33;1.53;;;1.90;91.30;;;;;;4996400;28;20022;-77
2023/03/28 01:11:56;;;;;;;10.90;1.60;;;1.90;91.40;;;;;;4996219;28;20289;-77
2023/03/28 01:14:25;;;;;;;6.57;1.57;;;1.90;91.40;;;;;;4996156;28;20018;-77
2023/03/28 01:16:51;;;;;;;8.50;1.80;;;1.80;91.40;;;;;;4996234;28;20095;-76
2023/03/28 01:19:27;;;;;;;10.20;2.30;;;1.80;91.60;;;;;;5013812;28;20033;-77
2023/03/28 01:22:13;;;;;;;4.27;1.50;;;1.80;91.60;;;;;;4996138;28;20025;-77
2023/03/28 01:25:00;;;;;;;11.53;1.77;;;1.80;91.70;;;;;;4996114;28;20113;-76
2023/03/28 01:27:52;;;;;;;5.30;1.57;;;1.80;91.80;;;;;;5012457;28;20026;-76
2023/03/28 01:30:26;;;;;;;5.37;1.63;;;1.80;91.80;;;;;;4996194;28;20025;-77
2023/03/28 01:33:23;;;;;;;10.70;1.90;;;1.80;91.90;;;;;;5012291;28;20038;-76
2023/03/28 01:36:13;;;;;;;8.60;1.77;;;1.80;92.00;;;;;;5012222;28;20123;-77
2023/03/28 01:38:45;;;;;;;7.50;1.77;;;1.80;92.00;;;;;;5013386;28;20360;-77
2023/03/28 01:41:32;;;;;;;5.63;1.63;;;1.80;92.10;;;;;;4995756;28;20021;-77
2023/03/28 01:44:31;;;;;;;7.80;2.00;;;1.80;92.20;;;;;;5013354;28;20097;-77
2023/03/28 01:47:07;;;;;;;8.03;1.90;;;1.70;92.20;;;;;;4988372;28;20014;-77
2023/03/28 01:49:37;;;;;;;6.37;1.87;;;1.70;92.30;;;;;;4995929;28;20053;-77
2023/03/28 01:52:58;;;;;;;4.73;1.50;;;1.70;92.40;;;;;;4995482;28;20057;-77
2023/03/28 01:55:37;;;;;;;5.47;2.10;;;1.70;92.50;;;;;;4975009;28;20388;-77
2023/03/28 01:58:29;;;;;;;9.83;2.13;;;1.70;92.60;;;;;;4995569;28;20054;-77
2023/03/28 02:01:04;;;;;;;9.93;1.93;;;1.70;92.60;;;;;;4987854;28;20029;-77
2023/03/28 02:03:36;;;;;;;9.23;1.93;;;1.70;92.70;;;;;;4995642;28;20029;-77
2023/03/28 02:06:07;;;;;;;6.20;1.97;;;1.60;92.80;;;;;;4995617;28;20026;-77
2023/03/28 02:08:37;;;;;;;9.80;2.23;;;1.60;92.90;;;;;;5013221;28;20037;-77
2023/03/28 02:11:03;;;;;;;6.50;1.90;;;1.60;93.00;;;;;;4995669;28;20014;-77
2023/03/28 02:13:34;;;;;;;9.13;2.90;;;1.60;93.10;;;;;;4995567;28;20120;-76
2023/03/28 02:16:01;;;;;;;4.93;1.67;;;1.70;93.10;;;;;;5013172;28;20030;-77
2023/03/28 02:18:39;;;;;;;8.03;2.00;;;1.60;93.20;;;;;;4995608;28;20060;-77
2023/03/28 02:21:09;;;;;;;8.53;2.10;;;1.70;93.20;;;;;;5013061;28;20026;-77
2023/03/28 02:23:46;;;;;;;7.43;2.03;;;1.60;93.30;;;;;;5013366;28;20022;-77
2023/03/28 02:26:13;;;;;;;5.83;1.73;;;1.60;93.40;;;;;;4995550;28;20169;-76
2023/03/28 02:28:41;;;;;;;6.00;2.10;;;1.70;93.50;;;;;;4995372;28;20455;-77
2023/03/28 02:31:08;;;;;;;6.80;2.10;;;1.60;93.50;;;;;;4995397;28;20022;-77
2023/03/28 02:33:40;;;;;;;7.63;2.10;;;1.60;93.60;;;;;;5013010;28;20096;-76
2023/03/28 02:36:20;;;;;;;8.83;2.30;;;1.60;93.70;;;;;;4995274;28;20030;-77
2023/03/28 02:39:20;;;;;;;9.23;2.83;;;1.60;93.70;;;;;;5013020;28;20026;-77
2023/03/28 02:42:00;;;;;;;7.87;1.63;;;1.60;93.80;;;;;;5011715;28;20022;-77
2023/03/28 02:44:51;;;;;;;6.93;2.00;;;1.60;93.80;;;;;;5011467;28;20080;-76
2023/03/28 02:47:20;;;;;;;6.00;1.67;;;1.60;93.90;;;;;;5011839;28;20041;-77
2023/03/28 02:49:54;;;;;;;6.93;2.27;;;1.50;93.90;;;;;;5011491;28;20064;-76
2023/03/28 02:52:52;;;;;;;10.57;2.20;;;1.50;94.10;;;;;;5011652;28;20030;-77
2023/03/28 02:55:29;;;;;;;10.33;2.20;;;1.50;94.10;;;;;;4995082;28;20121;-76
2023/03/28 02:58:06;;;;;;;13.23;2.63;;;1.50;94.20;;;;;;5011617;28;20478;-77
2023/03/28 03:00:34;;;;;;;8.27;1.93;;;1.60;94.20;;;;;;4995177;28;20041;-77
2023/03/28 03:03:02;;;;;;;10.43;2.97;;;1.50;94.30;;;;;;4995142;28;20032;-76
2023/03/28 03:05:28;;;;;;;6.80;2.53;;;1.50;94.40;;;;;;5014345;28;20037;-77
2023/03/28 03:07:55;;;;;;;8.10;2.50;;;1.50;94.50;;;;;;5014952;28;20041;-77
2023/03/28 03:10:21;;;;;;;8.70;2.17;;;1.40;94.60;;;;;;5015099;28;20030;-77
2023/03/28 03:12:47;;;;;;;12.83;2.97;;;1.40;94.70;;;;;;4998669;28;20390;-77
2023/03/28 03:15:15;;;;;;;11.57;3.10;;;1.40;94.80;;;;;;5014788;28;20045;-77
2023/03/28 03:17:42;;;;;;;7.17;2.50;;;1.40;94.90;;;;;;4998960;28;20030;-77
2023/03/28 03:20:08;;;;;;;8.13;2.13;;;1.40;95.00;;;;;;4998385;28;20029;-77
2023/03/28 03:22:35;;;;;;;8.40;2.87;;;1.40;95.10;;;;;;5014755;28;20176;-77
2023/03/28 03:25:06;;;;;;;11.93;3.10;;;1.30;95.20;;;;;;5015958;28;20160;-77
2023/03/28 03:27:33;;;;;;;7.63;2.13;;;1.30;95.30;;;;;;5015748;28;20026;-77
2023/03/28 03:29:59;;;;;;;5.90;2.00;;;1.40;95.50;;;;;;5014731;28;20046;-77
2023/03/28 03:32:25;;;;;;;11.40;2.40;;;1.30;95.50;;;;;;4998119;28;20104;-77
2023/03/28 03:34:51;;;;;;;8.13;2.30;;;1.30;95.60;;;;;;5014753;28;20398;-77
2023/03/28 03:37:17;;;;;;;8.40;3.00;;;1.30;95.70;;;;;;4998415;28;20030;-77
2023/03/28 03:39:44;;;;;;;7.77;2.57;;;1.30;95.70;;;;;;4998136;28;20022;-77
2023/03/28 03:42:10;;;;;;;6.73;2.60;;;1.30;95.80;;;;;;4998000;28;20030;-77
2023/03/28 03:44:36;;;;;;;8.30;2.20;;;1.20;95.80;;;;;;4998065;28;20564;-77
2023/03/28 03:47:02;;;;;;;10.53;2.30;;;1.20;96.00;;;;;;4997790;28;20026;-77
2023/03/28 03:49:28;;;;;;;9.13;2.57;;;1.20;96.10;;;;;;5014216;28;20026;-77
2023/03/28 03:51:54;;;;;;;8.43;2.87;;;1.20;96.10;;;;;;5007263;28;20060;-77
2023/03/28 03:54:19;;;;;;;8.97;2.83;;;1.10;96.50;;;;;;4997951;28;20512;-77
2023/03/28 03:56:45;;;;;;;8.37;2.83;;;1.10;96.30;;;;;;4997753;28;20030;-77
2023/03/28 03:59:11;;;;;;;10.20;2.73;;;1.10;96.50;;;;;;4997796;28;20026;-77
2023/03/28 04:01:38;;;;;;;10.03;2.77;;;1.20;96.60;;;;;;5013870;28;20169;-77
2023/03/28 04:04:08;;;;;;;8.10;2.73;;;1.10;96.70;;;;;;4997534;28;20021;-77
2023/03/28 04:06:33;;;;;;;8.07;2.87;;;1.20;96.80;;;;;;4997839;28;20034;-77
2023/03/28 04:08:59;;;;;;;12.07;3.67;;;1.10;96.90;;;;;;4997748;28;20065;-77
2023/03/28 04:11:25;;;;;;;8.47;2.83;;;1.20;97.00;;;;;;5013753;28;20030;-77
2023/03/28 04:13:51;;;;;;;9.63;2.90;;;1.10;97.00;;;;;;4997376;28;20042;-77
2023/03/28 04:16:16;;;;;;;12.20;2.80;;;1.10;97.10;;;;;;4996717;28;20034;-77
2023/03/28 04:18:49;;;;;;;10.03;3.80;;;1.20;97.20;;;;;;4997428;28;20519;-77
2023/03/28 04:21:16;;;;;;;7.53;3.17;;;1.10;97.20;;;;;;4998485;28;20373;-77
2023/03/28 04:23:42;;;;;;;7.50;3.03;;;1.10;97.30;;;;;;5014825;28;20026;-77
2023/03/28 04:26:09;;;;;;;13.30;3.57;;;1.20;97.40;;;;;;5014782;28;20026;-77
2023/03/28 04:28:35;;;;;;;9.80;3.47;;;1.10;97.40;;;;;;4997178;28;20032;-77
2023/03/28 04:31:00;;;;;;;6.67;2.90;;;1.10;97.50;;;;;;4997296;28;20030;-76
2023/03/28 04:33:29;;;;;;;7.33;2.73;;;1.10;97.60;;;;;;5014590;28;20392;-76
2023/03/28 04:35:58;;;;;;;8.60;3.17;;;1.10;97.70;;;;;;5015710;28;20061;-76
2023/03/28 04:38:25;;;;;;;10.40;3.33;;;1.10;97.80;;;;;;5016444;28;20046;-76
2023/03/28 04:40:56;;;;;;;10.93;2.83;;;1.10;97.90;;;;;;5023995;28;20024;-76
2023/03/28 04:43:25;;;;;;;10.70;3.53;;;1.10;98.00;;;;;;5016463;28;20133;-75
2023/03/28 04:45:51;;;;;;;7.57;3.47;;;1.10;98.10;;;;;;4980203;28;20037;-76
2023/03/28 04:48:18;;;;;;;13.87;3.60;;;1.20;98.20;;;;;;5033458;28;20026;-76
2023/03/28 04:50:44;;;;;;;7.83;3.23;;;1.10;98.20;;;;;;5014013;28;20022;-76
2023/03/28 04:53:11;;;;;;;7.37;3.50;;;1.00;98.30;;;;;;5031342;28;20052;-76
2023/03/28 04:55:37;;;;;;;11.30;3.80;;;1.00;98.40;;;;;;5031559;28;20025;-76
2023/03/28 04:58:03;;;;;;;8.23;2.93;;;1.10;98.60;;;;;;5015043;28;20017;-76
2023/03/28 05:00:29;;;;;;;16.27;3.70;;;1.10;98.70;;;;;;5018908;28;20029;-77
2023/03/28 05:02:58;;;;;;;13.47;3.37;;;1.00;99.10;;;;;;5007818;28;20104;-76
2023/03/28 05:05:24;;;;;;;12.77;3.20;;;1.00;98.90;;;;;;5011510;28;20481;-76
2023/03/28 05:07:50;;;;;;;11.97;3.87;;;1.00;99.00;;;;;;4996009;28;20117;-76
2023/03/28 05:10:16;;;;;;;9.80;3.33;;;1.00;99.40;;;;;;4995817;28;20113;-75
2023/03/28 05:12:41;;;;;;;10.20;3.23;;;1.00;99.20;;;;;;5029336;28;20136;-75
2023/03/28 05:15:10;;;;;;;9.87;3.33;;;1.00;99.20;;;;;;4999173;28;20701;-76
2023/03/28 05:17:36;;;;;;;9.37;3.20;;;1.00;99.30;;;;;;5015439;28;20025;-76
2023/03/28 05:20:06;;;;;;;10.33;2.93;;;1.10;99.40;;;;;;5014453;28;20132;-76
2023/03/28 05:22:32;;;;;;;11.23;3.80;;;1.00;99.40;;;;;;5015702;28;20029;-75
2023/03/28 05:24:58;;;;;;;10.33;3.20;;;1.00;99.50;;;;;;5014925;28;20120;-75
2023/03/28 05:27:24;;;;;;;12.00;3.87;;;1.10;99.60;;;;;;5014682;28;20026;-76
2023/03/28 05:29:50;;;;;;;10.43;3.73;;;1.10;99.70;;;;;;5032243;28;20033;-76
2023/03/28 05:32:15;;;;;;;8.87;3.60;;;1.10;99.80;;;;;;5032055;28;20079;-76
2023/03/28 05:34:41;;;;;;;9.07;2.83;;;1.10;99.90;;;;;;5015475;28;20103;-75
2023/03/28 05:37:07;;;;;;;9.63;3.10;;;1.10;99.90;;;;;;5015503;28;20033;-75
2023/03/28 05:39:32;;;;;;;10.93;3.33;;;1.10;99.90;;;;;;5026653;28;20056;-75
2023/03/28 05:41:58;;;;;;;10.67;3.63;;;1.00;99.90;;;;;;4996029;28;20109;-76
2023/03/28 05:44:24;;;;;;;11.40;4.00;;;1.10;99.90;;;;;;4995961;28;20049;-75
2023/03/28 05:46:49;;;;;;;10.60;3.20;;;1.10;99.90;;;;;;5009935;28;20067;-75
2023/03/28 05:49:15;;;;;;;9.53;3.23;;;1.10;99.90;;;;;;4990289;28;20100;-75
2023/03/28 05:51:41;;;;;;;9.40;4.00;;;1.10;99.90;;;;;;4971777;28;20026;-75
2023/03/28 05:54:06;;;;;;;8.97;3.33;;;1.10;99.90;;;;;;4972284;28;20037;-75
2023/03/28 05:56:34;;;;;;;11.33;3.57;;;1.10;99.90;;;;;;5006290;28;20029;-77
2023/03/28 05:59:00;;;;;;;7.23;3.13;;;1.20;99.90;;;;;;5005763;28;20477;-76
2023/03/28 06:01:27;;;;;;;9.10;3.80;;;1.20;99.90;;;;;;5018372;28;20022;-76
2023/03/28 06:03:54;;;;;;;9.87;3.60;;;1.20;99.90;;;;;;4979387;28;20029;-77
2023/03/28 06:06:20;;;;;;;6.83;3.73;;;1.30;99.90;;;;;;4995774;28;20022;-76
2023/03/28 06:08:46;;;;;;;10.00;3.17;;;1.30;99.90;;;;;;4995946;28;20030;-77
2023/03/28 06:11:12;;;;;;;9.90;3.00;;;1.40;99.90;;;;;;5009232;28;20369;-77
2023/03/28 06:13:38;;;;;;;11.97;3.97;;;1.40;99.90;;;;;;5011991;28;20030;-76
2023/03/28 06:16:04;;;;;;;6.73;2.90;;;1.40;99.90;;;;;;4994336;28;20092;-77
2023/03/28 06:18:30;;;;;;;7.07;2.77;;;1.50;99.90;;;;;;5014638;28;20056;-77
2023/03/28 06:20:56;;;;;;;9.50;3.17;;;1.60;99.90;;;;;;5014711;28;20064;-75
2023/03/28 06:23:22;;;;;;;11.40;3.00;;;1.60;99.90;;;;;;4998659;28;20025;-76
2023/03/28 06:25:48;;;;;;;5.53;2.93;;;1.60;99.90;;;;;;5032266;28;20025;-77
2023/03/28 06:28:14;;;;;;;9.43;2.93;;;1.70;99.90;;;;;;5007790;28;20113;-77
2023/03/28 06:30:40;;;;;;;12.87;3.50;;;1.70;99.90;;;;;;4995738;28;20021;-76
2023/03/28 06:33:06;;;;;;;7.30;2.70;;;1.80;99.90;;;;;;4979029;28;20034;-77
2023/03/28 06:35:32;;;;;;;7.90;2.87;;;1.80;99.90;;;;;;4995423;28;20030;-77
2023/03/28 06:37:58;;;;;;;5.53;2.53;;;1.90;99.90;;;;;;4986766;28;20362;-76
2023/03/28 06:40:25;;;;;;;11.13;2.77;;;1.90;99.90;;;;;;5016734;28;20071;-77
2023/03/28 06:42:51;;;;;;;9.20;3.23;;;1.90;99.90;;;;;;5025500;28;20014;-77
2023/03/28 06:45:17;;;;;;;10.07;3.50;;;2.00;99.90;;;;;;5005357;28;20046;-77
2023/03/28 06:47:44;;;;;;;9.40;3.90;;;2.10;99.90;;;;;;4990316;28;20510;-77
2023/03/28 06:50:10;;;;;;;8.77;3.30;;;2.10;99.90;;;;;;5027609;28;20073;-77
2023/03/28 06:52:36;;;;;;;7.83;3.00;;;2.20;99.90;;;;;;5007924;28;20025;-76
2023/03/28 06:55:03;;;;;;;8.73;2.80;;;2.20;99.90;;;;;;5017932;28;20033;-77
2023/03/28 06:57:28;;;;;;;8.57;3.10;;;2.30;99.90;;;;;;5018700;28;20021;-77
2023/03/28 06:59:54;;;;;;;9.70;3.77;;;2.30;99.90;;;;;;5018562;28;20052;-78
2023/03/28 07:02:20;;;;;;;7.10;2.67;;;2.50;99.90;;;;;;4998783;28;20026;-78
2023/03/28 07:04:47;;;;;;;7.57;2.93;;;2.50;99.90;;;;;;5027211;28;20061;-78
2023/03/28 07:07:13;;;;;;;11.83;3.37;;;2.60;99.90;;;;;;5002026;28;20025;-76
2023/03/28 07:09:38;;;;;;;11.67;3.20;;;2.70;99.90;;;;;;5018668;28;20064;-78
2023/03/28 07:12:04;;;;;;;11.30;3.00;;;2.80;99.90;;;;;;4995896;28;20474;-76
2023/03/28 07:14:30;;;;;;;13.00;3.87;;;2.90;99.90;;;;;;4990844;28;20026;-76
2023/03/28 07:16:56;;;;;;;7.50;2.77;;;2.90;99.90;;;;;;4982634;28;20053;-76
2023/03/28 07:19:22;;;;;;;8.23;3.10;;;3.10;99.90;;;;;;4999475;28;20029;-77
2023/03/28 07:21:48;;;;;;;8.77;3.10;;;3.20;99.90;;;;;;4999355;28;20033;-76
2023/03/28 07:24:14;;;;;;;9.23;3.10;;;3.20;99.90;;;;;;4983283;28;20479;-78
2023/03/28 07:26:40;;;;;;;14.27;3.63;;;3.30;99.90;;;;;;4999907;28;20036;-82
2023/03/28 07:29:05;;;;;;;9.53;2.70;;;3.30;99.90;;;;;;4998630;28;20018;-81
2023/03/28 07:31:31;;;;;;;15.57;3.63;;;3.40;99.90;;;;;;4998538;28;20120;-81
2023/03/28 07:33:57;;;;;;;7.97;3.07;;;3.40;99.90;;;;;;4998801;28;20125;-81
2023/03/28 07:36:25;;;;;;;9.60;3.20;;;3.40;99.90;;;;;;4982379;28;20038;-81
2023/03/28 07:38:51;;;;;;;10.90;3.67;;;3.50;99.90;;;;;;5005595;28;20030;-82
2023/03/28 07:41:17;;;;;;;9.30;3.67;;;3.50;99.90;;;;;;5017931;28;20373;-82
2023/03/28 07:43:42;;;;;;;11.77;3.23;;;3.50;99.90;;;;;;5000993;28;20053;-82
2023/03/28 07:46:12;;;;;;;7.27;3.10;;;3.50;99.90;;;;;;5014475;28;20022;-81
2023/03/28 07:48:39;;;;;;;12.20;4.20;;;3.50;99.90;;;;;;5009630;28;20021;-81
2023/03/28 07:51:07;;;;;;;8.60;3.03;;;3.60;99.90;;;;;;4988958;28;20382;-81
2023/03/28 07:53:33;;;;;;;7.80;3.30;;;3.60;99.90;;;;;;5009722;28;20037;-82
2023/03/28 07:55:59;;;;;;;14.23;3.67;;;3.70;99.90;;;;;;5001259;28;20030;-82
2023/03/28 07:58:25;;;;;;;14.33;4.37;;;3.80;99.90;;;;;;4998874;28;20026;-85
2023/03/28 08:00:51;;;;;;;9.30;3.50;;;3.80;99.90;;;;;;4999186;28;20389;-85
2023/03/28 08:03:17;;;;;;;9.80;4.40;;;4.00;99.90;;;;;;4982178;28;20025;-85
2023/03/28 08:05:48;;;;;;;10.37;3.87;;;4.00;99.90;;;;;;4998596;28;20018;-86
2023/03/28 08:08:14;;;;;;;10.57;3.77;;;4.10;99.90;;;;;;5002725;28;20018;-86
2023/03/28 08:10:44;;;;;;;15.40;4.43;;;4.30;99.90;;;;;;4996235;28;20053;-85
2023/03/28 08:13:09;;;;;;;11.83;4.07;;;4.50;99.90;;;;;;5006846;28;20141;-85
2023/03/28 08:15:35;;;;;;;8.30;3.57;;;4.40;99.90;;;;;;5015774;28;20066;-85
2023/03/28 08:18:01;;;;;;;7.53;3.00;;;4.60;99.90;;;;;;4982723;28;20026;-85
2023/03/28 08:20:26;;;;;;;9.80;4.53;;;4.70;99.90;;;;;;4983264;28;20068;-86
2023/03/28 08:22:52;;;;;;;8.20;3.73;;;4.80;99.40;;;;;;4997537;28;20533;-84
2023/03/28 08:25:18;;;;;;;12.47;4.10;;;4.90;99.50;;;;;;5002338;28;20044;-85
2023/03/28 08:27:43;;;;;;;11.63;3.77;;;5.00;99.30;;;;;;5000755;28;20486;-81
2023/03/28 08:30:09;;;;;;;10.97;3.53;;;5.20;99.10;;;;;;5016677;28;20025;-82
2023/03/28 08:32:35;;;;;;;14.07;3.53;;;5.20;98.90;;;;;;4973021;28;20113;-81
2023/03/28 08:35:01;;;;;;;9.67;4.07;;;5.40;98.80;;;;;;4981210;28;20550;-81
2023/03/28 08:37:28;;;;;;;11.53;3.20;;;5.60;98.40;;;;;;4997670;28;20106;-82
2023/03/28 08:39:54;;;;;;;8.93;3.13;;;5.70;98.40;;;;;;4981043;28;20026;-81
2023/03/28 08:42:26;;;;;;;12.63;3.67;;;5.90;97.90;;;;;;4997053;28;20022;-82
2023/03/28 08:45:13;;;;;;;13.73;3.10;;;6.10;97.40;;;;;;5016076;28;20046;-81
2023/03/28 08:48:09;;;;;;;10.73;2.87;;;6.20;96.60;;;;;;4996785;28;20410;-82
2023/03/28 08:50:41;;;;;;;11.60;2.73;;;6.40;96.30;;;;;;4995510;28;20540;-81
2023/03/28 08:53:19;;;;;;;12.27;2.53;;;6.40;95.50;;;;;;4997061;28;20030;-82
2023/03/28 08:55:46;;;;;;;13.50;2.50;;;6.50;95.10;;;;;;5014186;28;20105;-82
2023/03/28 08:58:22;;;;;;;8.27;2.57;;;6.60;94.60;;;;;;4996415;28;20143;-81
2023/03/28 09:00:49;;;;;;;14.40;3.23;;;6.70;93.90;;;;;;4996614;28;20394;-80
2023/03/28 09:03:20;;;;;;;13.07;2.83;;;6.80;92.80;;;;;;5012265;28;20022;-80
2023/03/28 09:06:11;;;;;;;8.20;2.40;;;6.80;92.10;;;;;;4995352;28;20029;-81
2023/03/28 09:08:51;;;;;;;10.77;2.77;;;6.90;91.50;;;;;;5013250;28;20113;-80
2023/03/28 09:11:32;;;;;;;8.43;2.60;;;6.90;91.30;;;;;;4995940;28;20487;-80
2023/03/28 09:14:42;;;;;;;7.63;2.00;;;7.00;91.20;;;;;;4988039;28;20034;-80
2023/03/28 09:17:20;;;;;;;6.47;1.60;;;7.20;90.90;;;;;;4959830;28;20026;-81
2023/03/28 09:20:10;;;;;;;5.97;1.40;;;7.20;90.30;;;;;;4996418;28;20026;-79
2023/03/28 09:22:53;;;;;;;9.77;2.20;;;7.30;89.30;;;;;;4996174;28;20387;-80
2023/03/28 09:25:19;;;;;;;11.27;2.00;;;7.40;88.40;;;;;;4996337;28;20075;-80
2023/03/28 09:28:06;;;;;;;9.80;1.77;;;7.50;87.70;;;;;;4996111;28;20124;-79
2023/03/28 09:30:43;;;;;;;10.83;1.97;;;7.60;85.70;;;;;;4996356;28;20363;-81
2023/03/28 09:33:24;;;;;;;6.37;1.77;;;7.70;85.30;;;;;;4996176;28;20022;-79
2023/03/28 09:35:54;;;;;;;11.03;2.40;;;7.80;85.00;;;;;;4996116;28;20079;-79
2023/03/28 09:38:29;;;;;;;5.53;1.60;;;8.00;83.40;;;;;;4996135;28;20037;-79
2023/03/28 09:40:59;;;;;;;6.33;2.53;;;8.10;81.00;;;;;;4996474;28;20053;-79
2023/03/28 09:43:30;;;;;;;6.83;1.80;;;8.10;79.40;;;;;;4996074;28;20029;-79
2023/03/28 09:46:01;;;;;;;5.83;1.77;;;8.20;79.50;;;;;;4995610;28;20038;-79
2023/03/28 09:48:29;;;;;;;7.13;2.10;;;8.40;78.70;;;;;;5013481;28;20029;-79
2023/03/28 09:50:57;;;;;;;11.27;2.20;;;8.40;76.60;;;;;;4987950;28;20045;-79
2023/03/28 09:53:28;;;;;;;8.30;1.50;;;8.50;75.00;;;;;;4996218;28;20022;-79
2023/03/28 09:55:56;;;;;;;4.90;1.63;;;8.60;73.40;;;;;;5013678;28;20378;-80
2023/03/28 09:58:22;;;;;;;7.03;1.70;;;8.60;72.60;;;;;;5013344;28;20026;-80
2023/03/28 10:00:51;;;;;;;7.07;1.83;;;8.60;71.80;;;;;;4979546;28;20378;-80
2023/03/28 10:03:31;;;;;;;5.63;1.43;;;8.60;71.70;;;;;;5013358;28;20026;-79
2023/03/28 10:05:59;;;;;;;7.60;1.60;;;8.70;70.70;;;;;;5013337;28;20018;-79
2023/03/28 10:08:31;;;;;;;7.03;1.73;;;8.70;70.10;;;;;;4995402;28;20072;-80
2023/03/28 10:11:11;;;;;;;9.27;2.00;;;8.80;70.40;;;;;;5013155;28;20053;-81
2023/03/28 10:13:39;;;;;;;4.77;1.30;;;9.00;70.50;;;;;;4995945;28;20053;-81
2023/03/28 10:16:05;;;;;;;5.87;1.40;;;9.10;69.80;;;;;;4999468;28;20033;-80
2023/03/28 10:18:32;;;;;;;7.30;1.63;;;9.20;69.40;;;;;;4967292;28;20024;-79
2023/03/28 10:21:12;;;;;;;5.03;1.50;;;9.40;68.70;;;;;;4999564;28;20382;-80
2023/03/28 10:23:40;;;;;;;7.30;1.63;;;9.60;68.70;;;;;;4999563;28;20068;-78
2023/03/28 10:26:07;;;;;;;5.37;1.67;;;9.70;67.90;;;;;;4999193;28;20040;-80
2023/03/28 10:28:34;;;;;;;3.83;1.10;;;9.80;67.40;;;;;;4983251;28;20142;-78
2023/03/28 10:31:02;;;;;;;6.47;1.30;;;10.00;67.50;;;;;;4999159;28;20053;-78
2023/03/28 10:33:33;;;;;;;5.72;1.75;;;10.10;66.10;;;;;;4999180;28;20386;-80
2023/03/28 10:36:08;;;;;;;4.43;1.30;;;10.30;66.00;;;;;;4999228;28;20104;-79
2023/03/28 10:38:54;;;;;;;5.65;1.10;;;10.40;66.60;;;;;;5016708;28;20492;-79
2023/03/28 10:41:24;;;;;;;4.32;1.10;;;10.70;65.40;;;;;;4998922;28;20026;-80
2023/03/28 10:43:50;;;;;;;4.10;1.40;;;10.90;64.10;;;;;;5017124;28;20026;-81
2023/03/28 10:46:20;;;;;;;5.32;1.10;;;11.00;64.70;;;;;;4999026;28;20030;-79
2023/03/28 10:49:11;;;;;;;7.70;1.73;;;11.30;64.30;;;;;;5016587;28;20030;-78
2023/03/28 10:51:38;;;;;;;7.10;1.30;;;11.40;62.10;;;;;;4998884;28;20478;-77
2023/03/28 10:54:22;;;;;;;6.80;1.58;;;11.50;61.10;;;;;;4999179;28;20058;-78
2023/03/28 10:56:54;;;;;;;5.15;1.20;;;11.40;59.60;;;;;;4998753;28;20030;-78
2023/03/28 10:59:42;;;;;;;5.25;1.10;;;11.40;59.00;;;;;;4998562;28;20121;-79
2023/03/28 11:02:22;;;;;;;5.70;1.77;;;11.30;58.40;;;;;;5016290;28;20026;-80
2023/03/28 11:05:20;;;;;;;8.13;1.52;;;11.30;57.80;;;;;;4998410;28;20030;-79
2023/03/28 11:07:59;;;;;;;4.70;1.15;;;11.30;57.90;;;;;;4998528;28;20044;-83
2023/03/28 11:10:31;;;;;;;4.45;1.58;;;11.20;58.20;;;;;;4998813;28;20493;-79
2023/03/28 11:13:18;;;;;;;5.78;1.27;;;11.20;58.00;;;;;;4998360;28;20037;-78
2023/03/28 11:16:02;;;;;;;7.60;1.50;;;11.10;56.60;;;;;;4998277;28;20034;-78
2023/03/28 11:18:49;;;;;;;7.40;1.35;;;11.00;56.40;;;;;;4998175;28;20058;-78
2023/03/28 11:21:26;;;;;;;8.50;1.67;;;11.00;56.60;;;;;;4994997;28;20074;-79
2023/03/28 11:24:02;;;;;;;7.18;1.25;;;10.80;55.80;;;;;;5015756;28;20430;-79
2023/03/28 11:26:38;;;;;;;6.43;1.40;;;10.70;57.00;;;;;;4998391;28;20382;-79
2023/03/28 11:29:20;;;;;;;4.77;1.07;;;10.70;56.50;;;;;;4988346;28;20540;-79
2023/03/28 11:32:36;;;;;;;8.20;1.10;;;10.60;56.60;;;;;;4997217;28;20026;-79
2023/03/28 11:35:13;;;;;;;7.10;1.13;;;10.60;56.80;;;;;;4929179;29;20480;-78
2023/03/28 11:37:47;;;;;;;7.25;1.02;;;10.70;56.80;;;;;;4936137;29;20055;-79
2023/03/28 11:40:35;;;;;;;4.32;0.82;;;11.00;57.30;;;;;;4972903;28;20037;-79
2023/03/28 11:43:08;;;;;;;5.18;0.90;;;11.50;57.80;;;;;;4994776;28;20022;-79
2023/03/28 11:45:42;;;;;;;5.38;0.95;;;12.10;58.00;;;;;;4994401;28;20038;-78
2023/03/28 11:48:17;;;;;;;;;;;12.70;57.30;;;;;;4996314;28;20030;-78
2023/03/28 11:51:02;;;;;;;3.50;0.80;;;13.20;55.50;;;;;;4995815;28;19910;-78
2023/03/28 11:53:41;;;;;;;4.03;1.05;;;13.50;53.10;;;;;;4995993;28;20037;-76
2023/03/28 11:56:14;;;;;;;3.17;0.98;;;13.50;50.90;;;;;;4978084;28;20391;-78
2023/03/28 11:58:44;;;;;;;5.43;1.08;;;13.40;50.90;;;;;;4978480;28;20389;-79
2023/03/28 12:01:19;;;;;;;5.78;1.02;;;13.40;51.50;;;;;;4978095;28;20121;-79
2023/03/28 12:03:59;;;;;;;3.83;1.00;;;13.30;50.90;;;;;;4978260;28;20022;-77
2023/03/28 12:06:43;;;;;;;6.72;1.05;;;13.30;50.70;;;;;;4995691;28;20034;-78
2023/03/28 12:09:25;;;;;;;5.15;0.93;;;13.20;50.70;;;;;;4978343;28;20121;-78
2023/03/28 12:12:14;;;;;;;5.43;1.13;;;13.20;51.10;;;;;;4978196;28;20479;-78
2023/03/28 12:14:56;;;;;;;7.50;1.13;;;13.20;50.70;;;;;;4978063;28;20022;-78
2023/03/28 12:17:37;;;;;;;5.80;1.55;;;13.20;51.30;;;;;;4978008;28;20378;-78
2023/03/28 12:20:07;;;;;;;6.85;1.50;;;13.30;51.80;;;;;;4977785;28;20022;-77
2023/03/28 12:22:41;;;;;;;5.10;1.58;;;13.50;51.90;;;;;;4978361;28;20109;-78
2023/03/28 12:25:11;;;;;;;4.07;0.90;;;13.60;52.00;;;;;;4977513;28;20360;-78
2023/03/28 12:27:54;;;;;;;3.92;1.25;;;13.80;52.10;;;;;;4977728;28;20441;-78
2023/03/28 12:30:29;;;;;;;5.95;1.20;;;14.10;51.70;;;;;;4977938;28;20455;-78
2023/03/28 12:33:10;;;;;;;7.03;1.27;;;14.20;50.20;;;;;;4986877;28;20022;-78
2023/03/28 12:35:47;;;;;;;6.28;1.30;;;14.20;50.30;;;;;;4977358;28;20026;-78
2023/03/28 12:38:31;;;;;;;5.28;1.25;;;14.40;50.10;;;;;;4976816;28;20112;-77
2023/03/28 12:41:08;;;;;;;8.50;1.30;;;14.40;49.80;;;;;;4986981;28;20010;-77
2023/03/28 12:43:44;;;;;;;7.40;1.10;;;14.50;49.70;;;;;;4976972;28;20536;-78
2023/03/28 12:46:14;;;;;;;6.10;1.30;;;14.40;49.30;;;;;;4999227;28;20037;-78
2023/03/28 12:48:45;;;;;;;6.28;1.42;;;14.20;49.40;;;;;;5029415;28;20108;-78
2023/03/28 12:51:18;;;;;;;7.78;1.52;;;14.20;49.40;;;;;;5014500;28;20033;-77
2023/03/28 12:53:59;;;;;;;3.97;0.98;;;14.00;48.60;;;;;;5014498;28;20031;-79
2023/03/28 12:56:25;;;;;;;6.85;1.58;;;13.70;48.30;;;;;;5015207;28;20036;-77
2023/03/28 12:58:52;;;;;;;5.20;1.45;;;13.40;49.10;;;;;;5016108;28;20025;-77
2023/03/28 13:01:38;;;;;;;9.38;2.55;;;13.20;48.90;;;;;;5033714;28;20032;-78
2023/03/28 13:04:56;;;;;;;6.07;1.40;;;13.10;48.70;;;;;;5015546;28;20038;-77
2023/03/28 13:07:52;;;;;;;7.90;1.75;;;12.90;48.70;;;;;;5003043;28;20038;-77
2023/03/28 13:10:38;;;;;;;7.03;1.63;;;12.70;48.90;;;;;;5015993;28;20025;-77
2023/03/28 13:13:28;;;;;;;4.45;1.60;;;12.70;49.30;;;;;;5033729;28;20037;-78
2023/03/28 13:16:13;;;;;;;5.57;1.50;;;12.90;49.80;;;;;;5007612;28;20032;-79